createdAt,value
2023-01-17T00:01:36.272Z,5.86
2023-01-17T00:04:28.754Z,6.14
2023-01-17T00:07:28.790Z,5.72
2023-01-17T00:10:12.738Z,5.66
2023-01-17T00:12:55.112Z,6.04
2023-01-17T00:15:32.947Z,5.99
2023-01-17T00:18:07.438Z,6.02
2023-01-17T00:21:03.190Z,5.79
2023-01-17T00:23:56.440Z,5.80
2023-01-17T00:26:31.812Z,6.27
2023-01-17T00:29:08.475Z,5.98
2023-01-17T00:31:44.293Z,6.00
2023-01-17T00:34:15.198Z,5.93
2023-01-17T00:36:44.412Z,6.15
2023-01-17T00:39:18.895Z,6.17
2023-01-17T00:41:51.934Z,5.78
2023-01-17T00:44:40.576Z,6.22
2023-01-17T00:47:31.982Z,6.27
2023-01-17T00:50:31.292Z,6.24
2023-01-17T00:53:25.080Z,6.24
2023-01-17T00:56:34.245Z,5.97
2023-01-17T00:59:32.311Z,6.37
2023-01-17T01:02:30.292Z,6.04
2023-01-17T01:05:19.953Z,6.27
2023-01-17T01:08:11.421Z,6.30
2023-01-17T01:11:11.979Z,6.32
2023-01-17T01:14:03.821Z,6.44
2023-01-17T01:16:54.356Z,6.40
2023-01-17T01:19:51.539Z,6.46
2023-01-17T01:22:48.294Z,6.71
2023-01-17T01:25:39.758Z,6.57
2023-01-17T01:28:42.359Z,6.68
2023-01-17T01:31:33.005Z,6.67
2023-01-17T01:34:07.340Z,6.88
2023-01-17T01:36:36.356Z,6.96
2023-01-17T01:39:08.252Z,6.75
2023-01-17T01:41:41.787Z,6.95
2023-01-17T01:45:33.740Z,6.76
2023-01-17T01:48:56.686Z,7.02
2023-01-17T01:52:02.635Z,6.53
2023-01-17T01:54:48.365Z,6.87
2023-01-17T01:57:24.432Z,6.60
2023-01-17T02:00:09.045Z,7.10
2023-01-17T02:02:44.702Z,7.17
2023-01-17T02:05:23.949Z,7.07
2023-01-17T02:08:02.462Z,6.93
2023-01-17T02:10:40.033Z,7.03
2023-01-17T02:13:12.074Z,6.97
2023-01-17T02:16:15.465Z,6.88
2023-01-17T02:19:10.231Z,6.89
2023-01-17T02:22:30.253Z,6.95
2023-01-17T02:25:10.559Z,6.95
2023-01-17T02:28:00.393Z,7.31
2023-01-17T02:30:48.244Z,7.39
2023-01-17T02:33:38.035Z,7.03
2023-01-17T02:36:24.026Z,7.07
2023-01-17T02:39:23.518Z,6.85
2023-01-17T02:42:06.590Z,7.16
2023-01-17T02:44:46.513Z,7.58
2023-01-17T02:47:39.589Z,7.30
2023-01-17T02:50:20.871Z,7.05
2023-01-17T02:53:05.225Z,6.88
2023-01-17T02:55:59.699Z,7.46
2023-01-17T02:58:56.201Z,7.47
2023-01-17T03:02:26.077Z,7.05
2023-01-17T03:05:10.267Z,7.48
2023-01-17T03:07:45.162Z,6.94
2023-01-17T03:10:20.244Z,7.20
2023-01-17T03:12:59.323Z,7.61
2023-01-17T03:15:30.449Z,7.47
2023-01-17T03:18:07.076Z,7.44
2023-01-17T03:20:36.485Z,7.19
2023-01-17T03:23:06.643Z,7.28
2023-01-17T03:25:44.059Z,7.79
2023-01-17T03:28:15.304Z,7.54
2023-01-17T03:30:44.300Z,7.41
2023-01-17T03:33:22.397Z,8.07
2023-01-17T03:35:51.365Z,7.66
2023-01-17T03:38:23.439Z,7.49
2023-01-17T03:40:59.212Z,7.29
2023-01-17T03:43:38.406Z,7.73
2023-01-17T03:46:22.609Z,8.04
2023-01-17T03:48:57.998Z,7.96
2023-01-17T03:51:31.601Z,8.05
2023-01-17T03:54:02.466Z,7.90
2023-01-17T03:56:35.491Z,7.46
2023-01-17T03:59:12.978Z,8.08
2023-01-17T04:01:48.464Z,7.61
2023-01-17T04:04:18.248Z,7.82
2023-01-17T04:06:50.929Z,7.51
2023-01-17T04:09:22.648Z,7.73
2023-01-17T04:11:54.169Z,7.59
2023-01-17T04:14:24.083Z,8.10
2023-01-17T04:17:00.218Z,8.00
2023-01-17T04:19:38.292Z,8.09
2023-01-17T04:22:11.666Z,8.21
2023-01-17T04:24:40.324Z,8.25
2023-01-17T04:27:19.595Z,8.06
2023-01-17T04:29:51.548Z,7.99
2023-01-17T04:32:22.974Z,7.80
2023-01-17T04:34:52.591Z,7.86
2023-01-17T04:37:24.750Z,7.82
2023-01-17T04:40:07.872Z,7.75
2023-01-17T04:42:36.696Z,8.10
2023-01-17T04:45:10.806Z,7.90
2023-01-17T04:47:40.876Z,7.86
2023-01-17T04:50:12.429Z,7.78
2023-01-17T04:52:43.557Z,8.08
2023-01-17T04:55:19.964Z,7.81
2023-01-17T04:57:50.586Z,8.09
2023-01-17T05:00:24.400Z,8.35
2023-01-17T05:03:00.269Z,7.73
2023-01-17T05:05:38.628Z,8.05
2023-01-17T05:08:09.019Z,8.33
2023-01-17T05:10:50.006Z,7.92
2023-01-17T05:13:23.245Z,8.13
2023-01-17T05:15:55.094Z,8.19
2023-01-17T05:18:26.936Z,7.64
2023-01-17T05:21:06.872Z,8.28
2023-01-17T05:23:36.553Z,7.76
2023-01-17T05:26:10.721Z,7.80
2023-01-17T05:28:41.157Z,8.26
2023-01-17T05:31:11.928Z,8.25
2023-01-17T05:33:41.171Z,7.89
2023-01-17T05:36:12.618Z,8.17
2023-01-17T05:38:42.747Z,7.66
2023-01-17T05:41:14.235Z,7.93
2023-01-17T05:43:44.331Z,8.42
2023-01-17T05:46:19.739Z,8.28
2023-01-17T05:48:51.916Z,8.18
2023-01-17T05:51:21.113Z,8.31
2023-01-17T05:53:54.561Z,7.76
2023-01-17T05:56:30.471Z,8.25
2023-01-17T05:59:06.767Z,8.05
2023-01-17T06:01:36.336Z,8.15
2023-01-17T06:04:08.476Z,8.07
2023-01-17T06:06:57.225Z,7.78
2023-01-17T06:09:42.848Z,7.87
2023-01-17T06:12:16.756Z,7.93
2023-01-17T06:14:56.104Z,7.86
2023-01-17T06:17:31.433Z,8.01
2023-01-17T06:20:03.807Z,7.77
2023-01-17T06:22:38.681Z,7.77
2023-01-17T06:25:08.571Z,7.94
2023-01-17T06:27:40.136Z,8.18
2023-01-17T06:30:18.243Z,8.15
2023-01-17T06:32:59.944Z,7.83
2023-01-17T06:35:31.787Z,7.71
2023-01-17T06:38:06.787Z,8.11
2023-01-17T06:40:36.594Z,8.24
2023-01-17T06:43:11.418Z,8.13
2023-01-17T06:45:44.593Z,7.53
2023-01-17T06:48:15.673Z,8.08
2023-01-17T06:50:48.829Z,7.88
2023-01-17T06:53:22.588Z,8.04
2023-01-17T06:55:54.441Z,7.77
2023-01-17T06:58:27.191Z,7.98
2023-01-17T07:01:02.184Z,8.17
2023-01-17T07:03:33.582Z,8.51
2023-01-17T07:06:08.549Z,8.11
2023-01-17T07:08:39.536Z,7.95
2023-01-17T07:11:10.976Z,7.88
2023-01-17T07:13:43.653Z,7.95
2023-01-17T07:16:13.025Z,8.03
2023-01-17T07:18:43.570Z,8.17
2023-01-17T07:21:17.095Z,8.23
2023-01-17T07:23:48.207Z,7.67
2023-01-17T07:26:18.762Z,7.91
2023-01-17T07:28:50.753Z,7.97
2023-01-17T07:31:21.299Z,7.97
2023-01-17T07:33:52.724Z,8.02
2023-01-17T07:36:27.876Z,8.11
2023-01-17T07:39:05.436Z,8.61
2023-01-17T07:41:42.912Z,8.10
2023-01-17T07:44:37.200Z,8.80
2023-01-17T07:48:31.654Z,8.77
2023-01-17T07:51:14.663Z,8.29
2023-01-17T07:53:47.599Z,8.17
2023-01-17T07:56:21.364Z,8.33
2023-01-17T07:58:55.032Z,8.29
2023-01-17T08:01:26.782Z,8.21
2023-01-17T08:04:15.850Z,8.39
2023-01-17T08:06:50.364Z,8.20
2023-01-17T08:09:32.113Z,8.70
2023-01-17T08:12:11.364Z,8.17
2023-01-17T08:15:08.680Z,8.63
2023-01-17T08:17:46.668Z,8.30
2023-01-17T08:20:19.148Z,8.49
2023-01-17T08:23:04.810Z,8.39
2023-01-17T08:25:44.147Z,8.26
2023-01-17T08:28:23.960Z,8.46
2023-01-17T08:30:55.065Z,8.01
2023-01-17T08:33:31.576Z,8.82
2023-01-17T08:36:06.842Z,8.36
2023-01-17T08:38:39.600Z,8.40
2023-01-17T08:41:11.049Z,7.95
2023-01-17T08:43:48.873Z,8.62
2023-01-17T08:46:23.376Z,8.13
2023-01-17T08:49:15.892Z,8.63
2023-01-17T08:51:47.421Z,8.40
2023-01-17T08:57:12.868Z,8.17
2023-01-17T08:59:51.130Z,8.11
2023-01-17T09:02:21.332Z,8.16
2023-01-17T09:05:08.897Z,8.46
2023-01-17T09:07:50.958Z,8.43
2023-01-17T09:10:20.690Z,8.60
2023-01-17T09:12:52.350Z,8.18
2023-01-17T09:15:24.302Z,8.04
2023-01-17T09:18:11.343Z,8.02
2023-01-17T09:20:42.882Z,8.03
2023-01-17T09:23:12.647Z,8.62
2023-01-17T09:25:52.364Z,8.66
2023-01-17T09:28:22.976Z,8.01
2023-01-17T09:30:56.636Z,8.44
2023-01-17T09:33:41.254Z,8.78
2023-01-17T09:36:16.235Z,8.33
2023-01-17T09:38:50.940Z,8.53
2023-01-17T09:41:24.210Z,8.16
2023-01-17T09:44:16.778Z,8.45
2023-01-17T09:46:50.979Z,8.38
2023-01-17T09:49:51.322Z,8.90
2023-01-17T09:52:28.529Z,8.41
2023-01-17T09:55:18.907Z,8.94
2023-01-17T09:58:15.206Z,8.94
2023-01-17T10:01:11.438Z,8.92
2023-01-17T10:04:09.218Z,8.64
2023-01-17T10:07:06.974Z,8.91
2023-01-17T10:10:08.647Z,8.57
2023-01-17T10:12:48.110Z,8.47
2023-01-17T10:16:08.395Z,8.62
2023-01-17T10:19:04.761Z,8.62
2023-01-17T10:22:12.776Z,8.61
2023-01-17T10:25:48.915Z,8.42
2023-01-17T10:28:52.639Z,8.46
2023-01-17T10:31:38.331Z,8.32
2023-01-17T10:34:26.324Z,8.85
2023-01-17T10:37:26.594Z,8.61
2023-01-17T10:40:26.713Z,8.47
2023-01-17T10:43:32.728Z,8.72
2023-01-17T10:46:05.219Z,8.21
2023-01-17T10:48:50.986Z,8.69
2023-01-17T10:52:04.777Z,8.87
2023-01-17T10:55:12.888Z,8.67
2023-01-17T10:57:53.569Z,8.71
2023-01-17T11:00:52.674Z,8.72
2023-01-17T11:03:22.805Z,8.46
2023-01-17T11:06:20.544Z,8.99
2023-01-17T11:09:01.395Z,8.59
2023-01-17T11:11:35.089Z,8.44
2023-01-17T11:14:20.632Z,8.77
2023-01-17T11:17:13.139Z,8.71
2023-01-17T11:19:54.811Z,8.32
2023-01-17T11:22:32.160Z,8.57
2023-01-17T11:25:08.661Z,8.63
2023-01-17T11:27:46.865Z,8.63
2023-01-17T11:30:23.546Z,9.15
2023-01-17T11:33:11.305Z,8.84
2023-01-17T11:35:49.013Z,8.78
2023-01-17T11:38:26.751Z,8.96
2023-01-17T11:41:31.545Z,8.74
2023-01-17T11:44:20.948Z,9.08
2023-01-17T11:47:10.985Z,8.54
2023-01-17T11:49:49.301Z,8.85
2023-01-17T11:52:34.710Z,8.89
2023-01-17T11:55:09.285Z,9.44
2023-01-17T11:57:38.732Z,9.00
2023-01-17T12:00:31.241Z,9.32
2023-01-17T12:03:18.842Z,9.27
2023-01-17T12:06:14.519Z,9.23
2023-01-17T12:09:06.567Z,9.53
2023-01-17T12:12:40.593Z,9.47
2023-01-17T12:15:52.624Z,9.32
2023-01-17T12:18:42.400Z,9.28
2023-01-17T12:21:32.988Z,9.43
2023-01-17T12:24:36.641Z,9.39
2023-01-17T12:27:34.568Z,9.14
2023-01-17T12:30:32.307Z,9.40
2023-01-17T12:33:15.812Z,9.04
2023-01-17T12:35:54.495Z,9.15
2023-01-17T12:38:43.045Z,9.43
2023-01-17T12:41:35.500Z,9.73
2023-01-17T12:44:09.156Z,9.37
2023-01-17T12:46:52.755Z,9.90
2023-01-17T12:50:15.879Z,9.85
2023-01-17T12:53:20.692Z,10.01
2023-01-17T12:56:03.212Z,9.18
2023-01-17T12:59:07.097Z,9.59
2023-01-17T13:01:43.049Z,9.35
2023-01-17T13:04:57.748Z,9.34
2023-01-17T13:07:38.502Z,9.35
2023-01-17T13:10:24.421Z,9.21
2023-01-17T13:13:25.103Z,9.70
2023-01-17T13:16:37.232Z,10.20
2023-01-17T13:19:31.984Z,9.93
2023-01-17T13:22:21.622Z,9.99
2023-01-17T13:25:38.963Z,10.11
2023-01-17T13:28:53.589Z,10.16
2023-01-17T13:32:00.200Z,10.06
2023-01-17T13:35:20.959Z,9.95
2023-01-17T13:38:23.396Z,10.31
2023-01-17T13:41:43.623Z,10.32
2023-01-17T13:44:48.184Z,10.15
2023-01-17T13:47:24.362Z,10.02
2023-01-17T13:50:47.700Z,9.66
2023-01-17T13:53:47.862Z,10.10
2023-01-17T13:56:40.396Z,10.26
2023-01-17T14:00:11.948Z,10.24
2023-01-17T14:03:53.187Z,10.14
2023-01-17T14:06:48.073Z,9.75
2023-01-17T14:09:49.432Z,9.97
2023-01-17T14:12:21.092Z,9.61
2023-01-17T14:15:15.268Z,10.26
2023-01-17T14:17:54.509Z,10.06
2023-01-17T14:20:44.954Z,10.41
2023-01-17T14:23:25.103Z,10.26
2023-01-17T14:26:36.695Z,10.18
2023-01-17T14:29:45.060Z,9.88
2023-01-17T14:32:40.177Z,9.49
2023-01-17T14:35:35.055Z,10.27
2023-01-17T14:41:57.014Z,10.08
2023-01-17T14:44:44.020Z,9.45
2023-01-17T14:47:20.905Z,10.08
2023-01-17T14:50:21.498Z,10.41
2023-01-17T14:53:32.394Z,9.94
2023-01-17T14:56:20.338Z,10.16
2023-01-17T14:59:19.011Z,9.84
2023-01-17T15:02:08.369Z,9.72
2023-01-17T15:04:45.975Z,9.32
2023-01-17T15:07:21.456Z,9.70
2023-01-17T15:09:56.678Z,9.34
2023-01-17T15:12:49.318Z,9.73
2023-01-17T15:15:46.559Z,9.67
2023-01-17T15:18:48.629Z,9.06
2023-01-17T15:22:05.403Z,9.90
2023-01-17T15:25:48.010Z,9.33
2023-01-17T15:28:44.208Z,9.44
2023-01-17T15:31:43.449Z,9.75
2023-01-17T15:35:17.561Z,9.34
2023-01-17T15:38:49.017Z,9.05
2023-01-17T15:41:44.466Z,8.96
2023-01-17T15:44:48.927Z,8.88
2023-01-17T15:47:51.847Z,8.63
2023-01-17T15:51:47.890Z,8.74
2023-01-17T15:55:39.678Z,8.98
2023-01-17T16:02:46.226Z,9.34
2023-01-17T16:05:38.664Z,9.22
2023-01-17T16:19:16.695Z,9.01
2023-01-17T16:29:32.630Z,9.33
2023-01-17T16:33:19.334Z,9.38
2023-01-17T16:36:40.711Z,9.02
2023-01-17T16:39:58.367Z,9.47
2023-01-17T16:43:26.581Z,9.40
2023-01-17T16:47:32.351Z,9.01
2023-01-17T16:50:19.543Z,9.34
2023-01-17T16:53:21.521Z,9.64
2023-01-17T17:26:44.365Z,9.59
2023-01-17T17:30:32.038Z,9.80
2023-01-17T17:47:49.348Z,8.49
2023-01-17T17:55:45.095Z,9.10
2023-01-17T17:58:21.775Z,9.35
2023-01-17T18:01:10.388Z,9.35
2023-01-17T18:04:24.104Z,9.09
2023-01-17T18:07:21.293Z,9.25
2023-01-17T18:09:52.915Z,9.10
2023-01-17T18:12:36.277Z,9.65
2023-01-17T18:15:13.417Z,9.57
2023-01-17T18:18:35.473Z,9.26
2023-01-17T18:21:27.239Z,9.69
2023-01-17T18:24:27.686Z,9.59
2023-01-17T18:27:16.930Z,9.16
2023-01-17T18:31:17.309Z,9.96
2023-01-17T18:37:04.913Z,9.48
2023-01-17T18:39:56.271Z,9.45
2023-01-17T18:43:15.463Z,9.86
2023-01-17T18:46:13.180Z,9.29
2023-01-17T18:49:08.895Z,9.27
2023-01-17T18:51:49.081Z,9.10
2023-01-17T18:54:21.160Z,9.39
2023-01-17T18:57:09.061Z,9.52
2023-01-17T18:59:48.889Z,9.53
2023-01-17T19:02:24.793Z,9.50
2023-01-17T19:05:17.028Z,9.51
2023-01-17T19:07:55.383Z,9.40
2023-01-17T19:10:35.855Z,9.56
2023-01-17T19:13:21.569Z,9.76
2023-01-17T19:16:03.348Z,9.49
2023-01-17T19:23:47.557Z,9.06
2023-01-17T19:26:25.181Z,9.19
2023-01-17T19:29:08.955Z,9.34
2023-01-17T19:31:48.509Z,9.06
2023-01-17T19:34:20.486Z,9.31
2023-01-17T19:36:56.217Z,9.45
2023-01-17T19:39:32.142Z,9.48
2023-01-17T19:42:20.717Z,10.05
2023-01-17T19:44:56.679Z,9.87
2023-01-17T19:47:39.749Z,9.67
2023-01-17T19:50:15.985Z,9.35
2023-01-17T19:52:46.064Z,9.18
2023-01-17T19:55:19.373Z,9.37
2023-01-17T19:58:05.995Z,9.50
2023-01-17T20:00:49.510Z,9.67
2023-01-17T20:03:41.383Z,9.50
2023-01-17T20:06:18.563Z,9.68
2023-01-17T20:09:08.216Z,9.72
2023-01-17T20:12:16.472Z,9.49
2023-01-17T20:14:48.967Z,9.32
2023-01-17T20:17:23.120Z,9.58
2023-01-17T20:19:55.901Z,9.29
2023-01-17T20:22:26.079Z,9.82
2023-01-17T20:25:03.561Z,9.95
2023-01-17T20:27:36.409Z,10.17
2023-01-17T20:30:20.258Z,9.75
2023-01-17T20:32:56.362Z,9.37
2023-01-17T20:35:37.513Z,9.33
2023-01-17T20:38:15.324Z,9.40
2023-01-17T20:40:45.158Z,9.29
2023-01-17T20:43:17.439Z,9.40
2023-01-17T20:45:56.878Z,9.68
2023-01-17T20:48:35.386Z,9.66
2023-01-17T20:51:13.230Z,9.88
2023-01-17T20:53:45.669Z,9.71
2023-01-17T20:56:18.594Z,9.60
2023-01-17T20:58:49.561Z,9.38
2023-01-17T21:01:25.031Z,9.70
2023-01-17T21:04:05.306Z,9.60
2023-01-17T21:06:47.829Z,9.85
2023-01-17T21:09:40.868Z,9.65
2023-01-17T21:13:17.993Z,9.68
2023-01-17T21:16:15.900Z,9.46
2023-01-17T21:18:48.730Z,9.77
2023-01-17T21:21:24.270Z,9.78
2023-01-17T21:24:01.972Z,10.01
2023-01-17T21:26:40.316Z,9.97
2023-01-17T21:29:13.893Z,9.63
2023-01-17T21:31:48.673Z,9.66
2023-01-17T21:34:25.384Z,9.82
2023-01-17T21:37:09.845Z,9.68
2023-01-17T21:39:43.267Z,9.71
2023-01-17T21:42:14.794Z,9.72
2023-01-17T21:44:47.632Z,9.56
2023-01-17T21:47:19.427Z,9.79
2023-01-17T21:49:48.904Z,9.89
2023-01-17T21:52:20.889Z,10.04
2023-01-17T21:55:09.508Z,10.12
2023-01-17T21:58:04.944Z,9.86
2023-01-17T22:00:42.964Z,9.74
2023-01-17T22:03:15.045Z,9.71
2023-01-17T22:05:44.966Z,9.91
2023-01-17T22:08:19.072Z,10.44
2023-01-17T22:10:49.016Z,10.31
2023-01-17T22:13:21.141Z,10.48
2023-01-17T22:16:03.277Z,10.49
2023-01-17T22:18:38.799Z,10.33
2023-01-17T22:21:15.447Z,10.26
2023-01-17T22:23:54.313Z,10.32
2023-01-17T22:26:28.993Z,10.17
2023-01-17T22:29:07.877Z,10.29
2023-01-17T22:31:38.183Z,10.22
2023-01-17T22:34:12.151Z,10.00
2023-01-17T22:36:43.721Z,10.27
2023-01-17T22:39:16.013Z,10.19
2023-01-17T22:41:45.953Z,10.11
2023-01-17T22:44:19.080Z,9.89
2023-01-17T22:46:49.599Z,10.00
2023-01-17T22:49:25.693Z,9.98
2023-01-17T22:52:00.258Z,10.41
2023-01-17T22:54:43.605Z,10.17
2023-01-17T22:57:15.678Z,9.80
2023-01-17T22:59:47.686Z,10.14
2023-01-17T23:02:20.378Z,10.43
2023-01-17T23:04:49.755Z,9.98
2023-01-17T23:07:25.294Z,10.17
2023-01-17T23:10:03.591Z,10.58
2023-01-17T23:12:36.158Z,10.48
2023-01-17T23:15:24.575Z,10.39
2023-01-17T23:18:21.503Z,10.57
2023-01-17T23:20:55.402Z,10.45
2023-01-17T23:23:25.166Z,11.14
2023-01-17T23:26:03.032Z,10.88
2023-01-17T23:28:34.319Z,10.69
2023-01-17T23:31:08.156Z,10.89
2023-01-17T23:33:37.542Z,10.83
2023-01-17T23:36:11.315Z,10.84
2023-01-17T23:38:44.817Z,11.14
2023-01-17T23:41:34.672Z,10.48
2023-01-17T23:44:04.998Z,10.18
2023-01-17T23:46:36.352Z,10.38
2023-01-17T23:49:08.699Z,10.93
